createdAt,value
2023-04-15T00:01:27.093Z,61.43
2023-04-15T00:03:55.267Z,61.08
2023-04-15T00:06:22.770Z,60.97
2023-04-15T00:08:50.798Z,60.91
2023-04-15T00:11:18.293Z,60.64
2023-04-15T00:13:45.817Z,60.95
2023-04-15T00:16:12.507Z,60.65
2023-04-15T00:18:39.198Z,60.34
2023-04-15T00:21:05.947Z,60.02
2023-04-15T00:23:32.604Z,59.61
2023-04-15T00:25:59.246Z,58.95
2023-04-15T00:28:26.366Z,58.98
2023-04-15T00:30:53.118Z,58.86
2023-04-15T00:33:20.070Z,58.91
2023-04-15T00:35:47.106Z,59.13
2023-04-15T00:38:13.710Z,58.73
2023-04-15T00:40:42.041Z,58.55
2023-04-15T00:43:08.662Z,58.68
2023-04-15T00:45:35.289Z,58.81
2023-04-15T00:48:02.290Z,58.55
2023-04-15T00:50:28.922Z,58.49
2023-04-15T00:52:56.164Z,58.82
2023-04-15T00:55:22.880Z,58.68
2023-04-15T00:57:50.759Z,58.64
2023-04-15T01:00:18.296Z,59.02
2023-04-15T01:02:46.219Z,59.10
2023-04-15T01:05:13.177Z,59.27
2023-04-15T01:07:40.104Z,58.92
2023-04-15T01:10:08.303Z,58.89
2023-04-15T01:12:36.071Z,58.72
2023-04-15T01:15:02.791Z,58.95
2023-04-15T01:17:30.187Z,59.11
2023-04-15T01:20:00.017Z,59.14
2023-04-15T01:22:27.835Z,59.11
2023-04-15T01:25:06.210Z,59.22
2023-04-15T01:27:35.480Z,58.76
2023-04-15T01:30:05.422Z,58.94
2023-04-15T01:32:32.827Z,59.10
2023-04-15T01:34:59.804Z,59.00
2023-04-15T01:37:26.522Z,58.71
2023-04-15T01:39:53.182Z,58.93
2023-04-15T01:42:21.260Z,58.61
2023-04-15T01:44:49.041Z,58.67
2023-04-15T01:47:15.534Z,58.86
2023-04-15T01:49:42.161Z,58.59
2023-04-15T01:52:09.332Z,58.54
2023-04-15T01:54:36.193Z,58.80
2023-04-15T01:57:03.729Z,58.56
2023-04-15T01:59:32.027Z,58.56
2023-04-15T02:01:59.237Z,58.69
2023-04-15T02:04:28.139Z,58.86
2023-04-15T02:06:54.820Z,58.77
2023-04-15T02:09:21.741Z,58.65
2023-04-15T02:11:48.289Z,58.81
2023-04-15T02:14:14.964Z,58.61
2023-04-15T02:16:41.663Z,58.57
2023-04-15T02:19:08.976Z,58.34
2023-04-15T02:21:37.563Z,58.62
2023-04-15T02:24:04.515Z,58.65
2023-04-15T02:26:33.229Z,58.61
2023-04-15T02:29:00.408Z,58.66
2023-04-15T02:31:27.389Z,58.72
2023-04-15T02:33:54.040Z,58.61
2023-04-15T02:36:21.392Z,58.96
2023-04-15T02:38:48.027Z,58.74
2023-04-15T02:41:15.422Z,58.98
2023-04-15T02:43:42.465Z,58.88
2023-04-15T02:46:12.937Z,59.25
2023-04-15T02:48:39.747Z,59.16
2023-04-15T02:51:21.245Z,59.07
2023-04-15T02:53:49.023Z,59.53
2023-04-15T02:56:17.314Z,59.62
2023-04-15T02:58:45.802Z,59.61
2023-04-15T03:01:12.968Z,59.82
2023-04-15T03:03:40.597Z,60.00
2023-04-15T03:06:09.147Z,59.95
2023-04-15T03:08:36.600Z,59.97
2023-04-15T03:11:04.549Z,60.01
2023-04-15T03:13:31.634Z,60.08
2023-04-15T03:15:59.009Z,59.74
2023-04-15T03:18:27.128Z,59.51
2023-04-15T03:20:53.832Z,59.53
2023-04-15T03:23:20.934Z,59.65
2023-04-15T03:25:48.697Z,59.49
2023-04-15T03:28:15.380Z,59.62
2023-04-15T03:30:42.479Z,59.62
2023-04-15T03:33:09.382Z,59.26
2023-04-15T03:35:36.803Z,59.37
2023-04-15T03:38:03.569Z,59.26
2023-04-15T03:40:30.559Z,59.36
2023-04-15T03:42:57.127Z,59.13
2023-04-15T03:45:23.894Z,59.25
2023-04-15T03:47:50.636Z,59.47
2023-04-15T03:50:17.436Z,59.21
2023-04-15T03:52:45.725Z,59.73
2023-04-15T03:55:12.399Z,59.70
2023-04-15T03:57:39.887Z,59.72
2023-04-15T04:00:08.120Z,59.93
2023-04-15T04:02:39.193Z,59.97
2023-04-15T04:05:06.317Z,60.08
2023-04-15T04:07:33.050Z,60.15
2023-04-15T04:09:59.669Z,60.35
2023-04-15T04:12:26.210Z,60.53
2023-04-15T04:14:52.811Z,60.59
2023-04-15T04:17:19.371Z,60.67
2023-04-15T04:19:46.536Z,60.71
2023-04-15T04:22:13.144Z,61.02
2023-04-15T04:24:39.688Z,60.75
2023-04-15T04:27:06.377Z,60.97
2023-04-15T04:29:33.045Z,60.94
2023-04-15T04:31:59.716Z,60.87
2023-04-15T04:34:26.719Z,60.77
2023-04-15T04:36:53.325Z,60.90
2023-04-15T04:39:19.892Z,61.02
2023-04-15T04:41:46.772Z,60.99
2023-04-15T04:44:13.255Z,61.45
2023-04-15T04:46:39.953Z,61.48
2023-04-15T04:49:07.042Z,61.75
2023-04-15T04:51:33.753Z,61.16
2023-04-15T04:54:01.854Z,61.24
2023-04-15T04:56:30.452Z,61.14
2023-04-15T04:58:57.173Z,61.22
2023-04-15T05:01:23.834Z,61.45
2023-04-15T05:03:50.540Z,61.18
2023-04-15T05:06:17.324Z,61.22
2023-04-15T05:08:43.852Z,61.07
2023-04-15T05:11:10.439Z,61.00
2023-04-15T05:13:38.847Z,60.96
2023-04-15T05:16:06.448Z,61.17
2023-04-15T05:18:33.588Z,61.53
2023-04-15T05:21:00.426Z,61.49
2023-04-15T05:23:27.454Z,61.30
2023-04-15T05:25:54.177Z,61.18
2023-04-15T05:28:21.282Z,61.17
2023-04-15T05:30:47.923Z,61.71
2023-04-15T05:33:14.529Z,61.58
2023-04-15T05:35:41.496Z,61.57
2023-04-15T05:38:08.340Z,61.54
2023-04-15T05:40:34.978Z,61.63
2023-04-15T05:43:01.612Z,61.72
2023-04-15T05:45:28.357Z,61.78
2023-04-15T05:47:55.004Z,61.74
2023-04-15T05:50:21.784Z,61.81
2023-04-15T05:52:48.438Z,62.10
2023-04-15T05:55:15.010Z,61.91
2023-04-15T05:57:41.660Z,61.71
2023-04-15T06:00:08.417Z,61.55
2023-04-15T06:02:38.249Z,62.04
2023-04-15T06:05:09.944Z,61.64
2023-04-15T06:07:37.980Z,60.83
2023-04-15T06:10:05.954Z,60.16
2023-04-15T06:12:32.942Z,59.65
2023-04-15T06:15:00.384Z,59.59
2023-04-15T06:17:27.619Z,58.83
2023-04-15T06:19:55.861Z,59.14
2023-04-15T06:22:23.358Z,58.54
2023-04-15T06:24:51.364Z,58.41
2023-04-15T06:27:18.031Z,57.67
2023-04-15T06:29:44.921Z,57.22
2023-04-15T06:32:12.432Z,56.66
2023-04-15T06:34:39.120Z,56.76
2023-04-15T06:37:06.491Z,56.35
2023-04-15T06:39:33.309Z,55.70
2023-04-15T06:42:00.008Z,55.21
2023-04-15T06:44:26.751Z,54.24
2023-04-15T06:46:53.464Z,53.78
2023-04-15T06:49:20.059Z,53.69
2023-04-15T06:51:46.692Z,53.40
2023-04-15T06:54:13.439Z,53.38
2023-04-15T06:56:40.128Z,53.46
2023-04-15T06:59:06.762Z,52.68
2023-04-15T07:01:33.553Z,52.46
2023-04-15T07:04:00.620Z,52.03
2023-04-15T07:06:27.781Z,51.74
2023-04-15T07:08:55.765Z,51.76
2023-04-15T07:11:22.708Z,51.71
2023-04-15T07:13:49.352Z,51.41
2023-04-15T07:16:16.143Z,51.73
2023-04-15T07:18:43.576Z,52.45
2023-04-15T07:21:10.323Z,51.68
2023-04-15T07:23:36.970Z,51.79
2023-04-15T07:26:04.337Z,52.08
2023-04-15T07:28:31.093Z,51.39
2023-04-15T07:30:57.820Z,51.94
2023-04-15T07:33:24.468Z,51.12
2023-04-15T07:35:51.189Z,51.01
2023-04-15T07:38:17.955Z,51.00
2023-04-15T07:40:44.706Z,50.28
2023-04-15T07:43:11.456Z,49.32
2023-04-15T07:45:38.270Z,49.08
2023-04-15T07:48:06.828Z,49.20
2023-04-15T07:50:33.527Z,49.08
2023-04-15T07:53:00.330Z,49.33
2023-04-15T07:55:28.225Z,49.02
2023-04-15T07:57:55.329Z,48.69
2023-04-15T08:00:22.341Z,48.43
2023-04-15T08:02:50.091Z,48.16
2023-04-15T08:05:17.157Z,48.26
2023-04-15T08:07:43.904Z,47.75
2023-04-15T08:10:10.924Z,47.54
2023-04-15T08:12:37.959Z,47.72
2023-04-15T08:15:05.485Z,47.86
2023-04-15T08:17:32.240Z,48.31
2023-04-15T08:19:59.149Z,48.32
2023-04-15T08:22:25.915Z,47.67
2023-04-15T08:24:52.553Z,46.42
2023-04-15T08:27:19.379Z,45.99
2023-04-15T08:29:46.089Z,46.21
2023-04-15T08:32:12.811Z,46.48
2023-04-15T08:34:39.614Z,46.51
2023-04-15T08:37:07.308Z,47.12
2023-04-15T08:39:33.887Z,46.81
2023-04-15T08:42:02.751Z,46.12
2023-04-15T08:44:33.527Z,46.08
2023-04-15T08:47:04.052Z,45.92
2023-04-15T08:49:32.624Z,45.38
2023-04-15T08:52:00.588Z,45.59
2023-04-15T08:54:28.243Z,44.84
2023-04-15T08:56:55.043Z,43.80
2023-04-15T08:59:22.229Z,44.09
2023-04-15T09:01:53.549Z,45.49
2023-04-15T09:04:20.781Z,45.71
2023-04-15T09:06:47.624Z,44.80
2023-04-15T09:09:14.725Z,44.96
2023-04-15T09:11:43.080Z,43.63
2023-04-15T09:14:09.713Z,44.19
2023-04-15T09:17:00.982Z,44.17
2023-04-15T09:19:28.863Z,42.87
2023-04-15T09:21:59.064Z,42.48
2023-04-15T09:24:33.785Z,42.13
2023-04-15T09:27:00.606Z,42.77
2023-04-15T09:29:27.207Z,43.22
2023-04-15T09:31:53.962Z,42.23
2023-04-15T09:34:21.564Z,41.22
2023-04-15T09:36:50.411Z,40.01
2023-04-15T09:39:17.862Z,40.33
2023-04-15T09:41:45.289Z,40.24
2023-04-15T09:44:25.601Z,40.40
2023-04-15T09:46:52.236Z,39.94
2023-04-15T09:49:19.643Z,40.28
2023-04-15T09:52:01.493Z,40.35
2023-04-15T09:54:37.156Z,39.11
2023-04-15T09:57:07.836Z,40.37
2023-04-15T09:59:34.542Z,38.83
2023-04-15T10:02:04.147Z,38.34
2023-04-15T10:04:35.209Z,39.43
2023-04-15T10:07:05.290Z,39.67
2023-04-15T10:09:33.701Z,38.92
2023-04-15T10:12:01.302Z,37.58
2023-04-15T10:14:32.933Z,38.37
2023-04-15T10:17:02.346Z,39.41
2023-04-15T10:19:33.258Z,41.09
2023-04-15T10:22:00.630Z,40.84
2023-04-15T10:24:28.015Z,39.74
2023-04-15T10:26:55.579Z,39.58
2023-04-15T10:29:25.760Z,40.02
2023-04-15T10:31:54.820Z,39.94
2023-04-15T10:34:23.025Z,39.49
2023-04-15T10:36:50.272Z,39.33
2023-04-15T10:39:40.008Z,39.89
2023-04-15T10:42:09.385Z,40.13
2023-04-15T10:44:38.387Z,39.22
2023-04-15T10:47:11.433Z,40.03
2023-04-15T10:49:59.240Z,39.87
2023-04-15T10:52:28.477Z,40.03
2023-04-15T10:55:15.981Z,38.97
2023-04-15T10:57:44.516Z,38.84
2023-04-15T11:00:16.532Z,38.89
2023-04-15T11:02:43.303Z,39.06
2023-04-15T11:05:14.640Z,39.39
2023-04-15T11:07:44.272Z,39.03
2023-04-15T11:10:13.826Z,38.69
2023-04-15T11:12:42.116Z,38.86
2023-04-15T11:15:34.851Z,38.99
2023-04-15T11:18:25.143Z,38.55
2023-04-15T11:20:52.714Z,38.81
2023-04-15T11:23:27.704Z,39.01
2023-04-15T11:25:59.426Z,39.53
2023-04-15T11:28:30.591Z,38.91
2023-04-15T11:30:58.660Z,38.81
2023-04-15T11:33:26.006Z,38.89
2023-04-15T11:35:56.503Z,38.64
2023-04-15T11:38:23.119Z,38.31
2023-04-15T11:40:51.987Z,38.03
2023-04-15T11:43:23.015Z,37.96
2023-04-15T11:46:01.063Z,37.60
2023-04-15T11:48:34.880Z,36.26
2023-04-15T11:51:04.344Z,36.72
2023-04-15T11:53:38.581Z,36.80
2023-04-15T11:56:06.331Z,36.82
2023-04-15T11:58:37.571Z,36.43
2023-04-15T12:01:06.104Z,35.87
2023-04-15T12:03:42.587Z,35.82
2023-04-15T12:06:24.724Z,36.10
2023-04-15T12:09:06.501Z,36.90
2023-04-15T12:11:49.047Z,36.22
2023-04-15T12:14:15.650Z,35.44
2023-04-15T12:16:51.775Z,35.75
2023-04-15T12:19:26.120Z,35.91
2023-04-15T12:21:58.905Z,36.19
2023-04-15T12:24:27.130Z,36.53
2023-04-15T12:26:57.363Z,36.84
2023-04-15T12:29:29.150Z,37.06
2023-04-15T12:32:06.095Z,37.22
2023-04-15T12:34:34.926Z,37.80
2023-04-15T12:37:04.040Z,38.63
2023-04-15T12:39:35.014Z,39.08
2023-04-15T12:42:01.823Z,39.16
2023-04-15T12:44:28.759Z,39.54
2023-04-15T12:46:55.958Z,39.72
2023-04-15T12:49:24.564Z,39.79
2023-04-15T12:51:53.372Z,40.02
2023-04-15T12:54:20.623Z,40.62
2023-04-15T12:56:49.900Z,40.86
2023-04-15T12:59:18.768Z,41.08
2023-04-15T13:01:47.564Z,40.59
2023-04-15T13:04:15.503Z,39.81
2023-04-15T13:06:43.040Z,39.90
2023-04-15T13:09:09.875Z,39.55
2023-04-15T13:11:36.750Z,39.53
2023-04-15T13:14:08.429Z,39.17
2023-04-15T13:16:35.341Z,39.30
2023-04-15T13:19:04.166Z,39.33
2023-04-15T13:21:35.234Z,39.27
2023-04-15T13:24:04.050Z,39.65
2023-04-15T13:26:31.831Z,39.83
2023-04-15T13:28:59.255Z,39.59
2023-04-15T13:31:26.468Z,39.12
2023-04-15T13:33:53.365Z,39.48
2023-04-15T13:36:20.077Z,39.38
2023-04-15T13:38:48.046Z,39.47
2023-04-15T13:41:16.491Z,38.93
2023-04-15T13:43:43.473Z,39.02
2023-04-15T13:46:10.583Z,38.63
2023-04-15T13:48:37.331Z,38.38
2023-04-15T13:51:04.119Z,38.33
2023-04-15T13:53:38.441Z,38.13
2023-04-15T13:56:10.041Z,37.42
2023-04-15T13:58:38.434Z,37.16
2023-04-15T14:01:07.123Z,37.17
2023-04-15T14:03:37.491Z,37.10
2023-04-15T14:06:05.757Z,37.52
2023-04-15T14:08:33.162Z,37.67
2023-04-15T14:10:59.880Z,38.12
2023-04-15T14:13:26.551Z,38.11
2023-04-15T14:15:53.270Z,37.98
2023-04-15T14:18:20.249Z,37.74
2023-04-15T14:20:46.908Z,37.38
2023-04-15T14:23:13.566Z,37.13
2023-04-15T14:25:40.493Z,37.46
2023-04-15T14:28:07.594Z,37.36
2023-04-15T14:30:34.349Z,37.40
2023-04-15T14:33:01.215Z,37.15
2023-04-15T14:35:28.123Z,36.92
2023-04-15T14:37:55.732Z,37.26
2023-04-15T14:40:22.738Z,37.12
2023-04-15T14:42:49.446Z,37.33
2023-04-15T14:45:16.395Z,37.63
2023-04-15T14:47:43.499Z,37.82
2023-04-15T14:50:10.531Z,37.86
2023-04-15T14:52:40.156Z,37.90
2023-04-15T14:55:11.626Z,38.21
2023-04-15T14:57:39.591Z,38.14
2023-04-15T15:00:07.878Z,38.29
2023-04-15T15:05:04.913Z,38.72
2023-04-15T15:07:31.835Z,38.66
2023-04-15T15:09:59.891Z,38.48
2023-04-15T15:12:26.638Z,38.31
2023-04-15T15:14:54.952Z,37.64
2023-04-15T15:17:22.250Z,37.87
2023-04-15T15:19:49.087Z,37.96
2023-04-15T15:22:15.738Z,37.55
2023-04-15T15:24:42.539Z,37.22
2023-04-15T15:27:10.509Z,37.43
2023-04-15T15:29:37.957Z,37.44
2023-04-15T15:32:04.766Z,37.36
2023-04-15T15:34:31.422Z,37.27
2023-04-15T15:36:58.090Z,37.39
2023-04-15T15:39:24.810Z,37.42
2023-04-15T15:41:51.567Z,38.06
2023-04-15T15:44:18.232Z,38.67
2023-04-15T15:46:45.081Z,38.96
2023-04-15T15:49:12.701Z,39.24
2023-04-15T15:51:39.333Z,39.19
2023-04-15T15:54:06.065Z,39.61
2023-04-15T15:56:33.269Z,39.96
2023-04-15T15:58:59.966Z,40.27
2023-04-15T16:01:26.720Z,40.11
2023-04-15T16:03:54.021Z,40.23
2023-04-15T16:06:23.864Z,39.41
2023-04-15T16:08:50.538Z,38.91
2023-04-15T16:11:17.341Z,39.17
2023-04-15T16:13:43.989Z,38.89
2023-04-15T16:16:10.771Z,38.80
2023-04-15T16:18:37.427Z,39.39
2023-04-15T16:21:04.187Z,39.70
2023-04-15T16:23:31.067Z,39.48
2023-04-15T16:25:58.094Z,39.08
2023-04-15T16:28:27.099Z,39.22
2023-04-15T16:30:55.128Z,39.65
2023-04-15T16:33:21.857Z,40.04
2023-04-15T16:35:48.559Z,40.30
2023-04-15T16:38:15.701Z,40.63
2023-04-15T16:40:42.653Z,41.10
2023-04-15T16:43:11.391Z,41.46
2023-04-15T16:45:38.878Z,42.25
2023-04-15T16:48:05.885Z,43.44
2023-04-15T16:50:32.888Z,43.67
2023-04-15T16:52:59.516Z,44.08
2023-04-15T16:55:26.872Z,44.19
2023-04-15T16:58:00.537Z,44.18
2023-04-15T17:00:35.976Z,44.07
2023-04-15T17:03:02.983Z,44.28
2023-04-15T17:05:31.224Z,44.51
2023-04-15T17:07:58.443Z,44.08
2023-04-15T17:10:25.218Z,44.20
2023-04-15T17:12:52.844Z,44.72
2023-04-15T17:15:20.398Z,45.00
2023-04-15T17:17:47.143Z,45.43
2023-04-15T17:20:13.865Z,45.74
2023-04-15T17:22:40.745Z,45.91
2023-04-15T17:25:07.859Z,46.11
2023-04-15T17:27:34.460Z,46.65
2023-04-15T17:30:01.472Z,46.97
2023-04-15T17:32:34.575Z,47.17
2023-04-15T17:35:05.594Z,47.45
2023-04-15T17:37:36.169Z,47.89
2023-04-15T17:40:03.468Z,47.93
2023-04-15T17:42:30.424Z,48.29
2023-04-15T17:44:57.120Z,48.56
2023-04-15T17:47:23.833Z,48.54
2023-04-15T17:49:50.522Z,48.93
2023-04-15T17:52:17.266Z,49.10
2023-04-15T17:54:45.638Z,49.34
2023-04-15T17:57:12.335Z,49.40
2023-04-15T17:59:43.941Z,49.42
2023-04-15T18:02:11.817Z,49.67
2023-04-15T18:04:39.637Z,50.00
2023-04-15T18:07:07.221Z,49.82
2023-04-15T18:09:34.079Z,49.90
2023-04-15T18:12:02.204Z,50.09
2023-04-15T18:14:34.616Z,50.04
2023-04-15T18:17:02.747Z,49.70
2023-04-15T18:19:30.881Z,50.01
2023-04-15T18:22:00.406Z,49.81
2023-04-15T18:26:54.575Z,50.43
2023-04-15T18:29:21.255Z,50.19
2023-04-15T18:31:48.041Z,50.41
2023-04-15T18:34:14.720Z,50.30
2023-04-15T18:36:41.598Z,50.55
2023-04-15T18:39:08.534Z,50.39
2023-04-15T18:41:35.311Z,50.49
2023-04-15T18:44:01.950Z,50.81
2023-04-15T18:46:29.067Z,50.54
2023-04-15T18:48:55.885Z,50.99
2023-04-15T18:51:22.535Z,51.02
2023-04-15T18:53:49.184Z,51.15
2023-04-15T18:56:16.155Z,50.88
2023-04-15T18:59:09.825Z,50.85
2023-04-15T19:01:32.179Z,50.60
2023-04-15T19:03:59.444Z,50.56
2023-04-15T19:06:27.256Z,50.24
2023-04-15T19:08:55.037Z,50.48
2023-04-15T19:11:21.880Z,50.24
2023-04-15T19:13:48.701Z,50.13
2023-04-15T19:16:15.370Z,50.43
2023-04-15T19:18:42.133Z,50.16
2023-04-15T19:21:08.837Z,50.29
2023-04-15T19:23:35.707Z,50.22
2023-04-15T19:26:02.650Z,50.12
2023-04-15T19:28:30.147Z,50.08
2023-04-15T19:30:58.032Z,50.57
2023-04-15T19:33:27.412Z,50.41
2023-04-15T19:35:54.149Z,50.60
2023-04-15T19:38:20.819Z,50.81
2023-04-15T19:40:47.531Z,50.80
2023-04-15T19:43:14.148Z,51.10
2023-04-15T19:45:40.828Z,50.95
2023-04-15T19:48:07.636Z,50.94
2023-04-15T19:50:34.334Z,51.34
2023-04-15T19:53:01.194Z,51.25
2023-04-15T19:55:27.929Z,50.91
2023-04-15T19:57:54.655Z,50.99
2023-04-15T20:00:21.584Z,51.30
2023-04-15T20:02:48.410Z,50.91
2023-04-15T20:05:15.478Z,50.95
2023-04-15T20:07:43.166Z,51.11
2023-04-15T20:10:13.087Z,51.13
2023-04-15T20:12:50.192Z,50.98
2023-04-15T20:15:19.708Z,50.78
2023-04-15T20:17:46.574Z,51.01
2023-04-15T20:20:13.486Z,50.83
2023-04-15T20:22:40.262Z,50.63
2023-04-15T20:25:07.614Z,50.67
2023-04-15T20:27:34.316Z,50.26
2023-04-15T20:30:01.308Z,50.23
2023-04-15T20:32:28.481Z,50.15
2023-04-15T20:34:55.349Z,50.02
2023-04-15T20:37:22.520Z,50.02
2023-04-15T20:39:49.308Z,49.99
2023-04-15T20:42:16.222Z,50.05
2023-04-15T20:44:42.968Z,50.32
2023-04-15T20:47:10.013Z,50.09
2023-04-15T20:49:38.368Z,49.66
2023-04-15T20:52:07.153Z,49.45
2023-04-15T20:54:34.246Z,49.49
2023-04-15T20:57:01.916Z,49.43
2023-04-15T20:59:28.733Z,49.31
2023-04-15T21:01:57.248Z,49.32
2023-04-15T21:04:24.631Z,49.40
2023-04-15T21:06:52.351Z,49.50
2023-04-15T21:09:19.160Z,49.59
2023-04-15T21:12:00.398Z,49.90
2023-04-15T21:14:28.999Z,49.85
2023-04-15T21:16:58.139Z,49.81
2023-04-15T21:19:24.893Z,49.93
2023-04-15T21:21:51.584Z,49.90
2023-04-15T21:24:18.184Z,50.17
2023-04-15T21:26:44.820Z,50.38
2023-04-15T21:29:12.154Z,50.34
2023-04-15T21:31:39.930Z,50.27
2023-04-15T21:34:06.562Z,50.20
2023-04-15T21:36:33.961Z,50.48
2023-04-15T21:39:01.099Z,50.63
2023-04-15T21:41:46.982Z,50.50
2023-04-15T21:44:14.971Z,50.79
2023-04-15T21:46:46.120Z,50.71
2023-04-15T21:49:13.769Z,51.13
2023-04-15T21:51:40.352Z,51.23
2023-04-15T21:54:06.987Z,51.03
2023-04-15T21:56:33.655Z,51.12
2023-04-15T21:59:00.392Z,51.17
2023-04-15T22:01:27.187Z,51.39
2023-04-15T22:03:54.188Z,51.28
2023-04-15T22:06:21.647Z,51.35
2023-04-15T22:08:56.657Z,51.34
2023-04-15T22:11:30.480Z,51.39
2023-04-15T22:13:57.979Z,51.46
2023-04-15T22:16:28.441Z,51.51
2023-04-15T22:18:55.920Z,51.50
2023-04-15T22:21:23.395Z,51.50
2023-04-15T22:23:51.132Z,51.45
2023-04-15T22:26:17.835Z,51.77
2023-04-15T22:28:44.508Z,51.64
2023-04-15T22:31:11.471Z,51.58
2023-04-15T22:33:39.054Z,51.60
2023-04-15T22:36:06.289Z,51.53
2023-04-15T22:38:33.351Z,51.37
2023-04-15T22:41:00.072Z,51.14
2023-04-15T22:43:27.784Z,51.28
2023-04-15T22:45:55.143Z,51.30
2023-04-15T22:48:22.924Z,51.22
2023-04-15T22:50:49.987Z,51.39
2023-04-15T22:53:20.171Z,51.44
2023-04-15T22:55:48.316Z,51.13
2023-04-15T22:58:15.932Z,51.26
2023-04-15T23:00:42.728Z,51.39
2023-04-15T23:03:09.960Z,51.24
2023-04-15T23:05:37.060Z,51.13
2023-04-15T23:08:03.706Z,51.50
2023-04-15T23:10:30.421Z,51.54
2023-04-15T23:12:57.104Z,51.67
2023-04-15T23:15:23.942Z,51.74
2023-04-15T23:17:50.829Z,52.15
2023-04-15T23:20:17.651Z,51.93
2023-04-15T23:22:44.410Z,52.01
2023-04-15T23:25:11.014Z,52.35
2023-04-15T23:27:37.714Z,52.14
2023-04-15T23:30:04.819Z,52.21
2023-04-15T23:32:31.490Z,52.64
2023-04-15T23:34:58.261Z,52.21
2023-04-15T23:37:24.870Z,52.38
2023-04-15T23:39:51.652Z,52.43
2023-04-15T23:42:18.309Z,52.71
2023-04-15T23:44:44.978Z,52.75
2023-04-15T23:47:11.594Z,52.85
2023-04-15T23:49:40.980Z,52.78
2023-04-15T23:52:08.044Z,52.76
2023-04-15T23:54:35.347Z,52.97
2023-04-15T23:57:03.615Z,52.75
2023-04-15T23:59:30.269Z,52.76
